createdAt,value
2018-08-30T02:14:08.747Z,4.25
2018-08-30T02:16:37.811Z,6.20
2018-08-30T02:19:08.867Z,3.67
2018-08-30T02:21:37.925Z,2.90
2018-08-30T02:24:07.956Z,3.60
2018-08-30T02:26:37.021Z,4.03
2018-08-30T02:29:08.002Z,3.07
2018-08-30T02:31:37.061Z,3.70
2018-08-30T02:34:06.116Z,5.70
2018-08-30T02:36:36.107Z,3.43
2018-08-30T02:39:05.213Z,4.60
2018-08-30T02:41:34.269Z,2.90
2018-08-30T02:44:03.341Z,2.83
2018-08-30T02:46:32.377Z,3.57
2018-08-30T02:49:01.518Z,3.40
2018-08-30T02:51:30.498Z,5.83
2018-08-30T02:56:35.292Z,3.40
2018-08-30T02:59:04.363Z,3.65
2018-08-30T03:01:33.409Z,4.10
2018-08-30T03:04:02.466Z,3.10
2018-08-30T03:06:33.495Z,2.87
2018-08-30T03:09:02.559Z,4.03
2018-08-30T03:11:31.618Z,3.53
2018-08-30T03:14:00.785Z,3.00
2018-08-30T03:19:05.581Z,4.37
2018-08-30T03:21:35.575Z,4.10
2018-08-30T03:24:04.615Z,3.63
2018-08-30T03:26:33.673Z,3.60
2018-08-30T03:29:03.683Z,3.73
2018-08-30T03:31:32.749Z,5.40
2018-08-30T03:34:05.274Z,4.53
2018-08-30T03:36:34.346Z,3.57
2018-08-30T03:39:03.713Z,7.33
2018-08-30T03:41:32.764Z,4.53
2018-08-30T03:44:01.825Z,4.17
2018-08-30T03:46:30.882Z,5.50
2018-08-30T03:49:00.888Z,4.37
2018-08-30T03:51:29.949Z,4.67
2018-08-30T03:53:59.032Z,4.10
2018-08-30T03:56:29.113Z,4.40
2018-08-30T03:58:58.158Z,4.37
2018-08-30T04:01:27.257Z,5.00
2018-08-30T04:03:57.689Z,5.97
2018-08-30T04:06:26.745Z,4.40
2018-08-30T04:08:56.749Z,5.10
2018-08-30T04:11:26.777Z,5.43
2018-08-30T04:13:55.840Z,5.07
2018-08-30T04:16:24.953Z,6.40
2018-08-30T04:18:54.011Z,4.03
2018-08-30T04:21:23.066Z,3.77
2018-08-30T04:23:53.099Z,2.80
2018-08-30T04:26:22.164Z,2.93
2018-08-30T04:28:51.227Z,2.53
2018-08-30T04:33:56.068Z,4.00
2018-08-30T04:39:01.918Z,4.03
2018-08-30T04:41:32.507Z,4.97
2018-08-30T04:44:01.575Z,3.60
2018-08-30T04:49:06.539Z,4.57
2018-08-30T04:54:12.450Z,4.53
2018-08-30T04:56:41.557Z,4.77
2018-08-30T05:01:46.376Z,4.97
2018-08-30T05:06:51.263Z,6.00
2018-08-30T05:09:22.321Z,5.50
2018-08-30T05:11:51.488Z,4.13
2018-08-30T05:14:20.549Z,4.70
2018-08-30T05:16:49.673Z,4.70
2018-08-30T05:19:18.727Z,4.97
2018-08-30T05:24:26.525Z,4.90
2018-08-30T05:29:31.422Z,5.30
2018-08-30T05:32:00.598Z,4.47
2018-08-30T05:34:29.642Z,4.87
2018-08-30T05:36:58.701Z,3.70
2018-08-30T05:39:31.061Z,6.20
2018-08-30T05:44:36.473Z,4.17
2018-08-30T05:49:40.711Z,5.00
2018-08-30T05:52:11.710Z,4.63
2018-08-30T06:02:48.445Z,4.25
2018-08-30T06:05:26.634Z,4.10
2018-08-30T06:13:18.821Z,4.50
2018-08-30T06:15:55.669Z,5.00
2018-08-30T06:23:37.234Z,4.47
2018-08-30T06:28:42.082Z,4.30
2018-08-30T06:31:14.337Z,6.47
2018-08-30T06:33:45.411Z,3.70
2018-08-30T06:36:14.491Z,4.30
2018-08-30T06:38:44.563Z,4.97
2018-08-30T06:43:50.130Z,3.90
2018-08-30T06:46:19.364Z,3.40
2018-08-30T06:48:52.160Z,3.80
2018-08-30T06:56:32.754Z,3.60
2018-08-30T06:59:01.903Z,3.60
2018-08-30T07:01:31.135Z,3.10
2018-08-30T07:04:00.182Z,3.13
2018-08-30T07:06:36.644Z,4.03
2018-08-30T07:09:11.442Z,3.70
2018-08-30T07:16:52.995Z,3.60
2018-08-30T07:19:25.374Z,3.50
2018-08-30T07:21:55.398Z,3.70
2018-08-30T07:24:33.226Z,4.90
2018-08-30T07:27:02.295Z,4.07
2018-08-30T07:29:32.245Z,4.37
2018-08-30T07:34:45.225Z,5.10
2018-08-30T07:37:14.201Z,3.90
2018-08-30T07:39:43.254Z,4.33
2018-08-30T07:44:48.101Z,4.60
2018-08-30T07:47:17.226Z,3.97
2018-08-30T07:49:46.232Z,4.10
2018-08-30T07:52:15.289Z,4.27
2018-08-30T07:54:44.529Z,7.13
2018-08-30T07:57:13.649Z,3.60
2018-08-30T07:59:44.609Z,5.50
2018-08-30T08:04:49.391Z,6.13
2018-08-30T08:07:20.505Z,5.85
2018-08-30T08:09:53.382Z,4.60
2018-08-30T08:12:22.441Z,3.80
2018-08-30T08:14:51.512Z,4.43
2018-08-30T08:17:22.538Z,7.30
2018-08-30T08:19:52.509Z,4.70
2018-08-30T08:22:21.595Z,5.10
2018-08-30T08:24:50.714Z,5.90
2018-08-30T08:27:20.682Z,5.43
2018-08-30T08:29:49.754Z,5.23
2018-08-30T08:32:20.297Z,4.57
2018-08-30T08:37:25.542Z,5.40
2018-08-30T08:39:54.609Z,5.07
2018-08-30T08:42:24.581Z,5.25
2018-08-30T08:44:53.901Z,6.37
2018-08-30T08:47:24.931Z,4.73
2018-08-30T08:49:55.991Z,5.00
2018-08-30T08:52:29.074Z,4.80
2018-08-30T08:54:58.138Z,5.33
2018-08-30T08:57:27.381Z,4.67
2018-08-30T08:59:57.389Z,5.63
2018-08-30T09:02:27.407Z,6.13
2018-08-30T09:07:33.245Z,5.62
2018-08-30T09:10:02.239Z,6.03
2018-08-30T09:12:31.282Z,6.00
2018-08-30T09:15:01.294Z,7.40
2018-08-30T09:17:30.356Z,5.40
2018-08-30T09:19:59.399Z,6.07
2018-08-30T09:22:28.449Z,5.67
2018-08-30T09:24:57.497Z,6.20
2018-08-30T09:27:26.571Z,7.95
2018-08-30T09:29:55.637Z,6.90
2018-08-30T09:32:24.689Z,6.77
2018-08-30T09:34:53.732Z,5.97
2018-08-30T09:37:22.793Z,5.73
2018-08-30T09:39:55.265Z,7.00
2018-08-30T09:42:24.315Z,7.80
2018-08-30T09:44:53.503Z,7.27
2018-08-30T09:47:22.538Z,6.60
2018-08-30T09:49:51.675Z,6.03
2018-08-30T09:54:58.419Z,7.07
2018-08-30T09:57:27.774Z,7.25
2018-08-30T09:59:56.766Z,6.90
2018-08-30T10:02:25.809Z,5.67
2018-08-30T10:04:56.860Z,6.70
2018-08-30T10:07:25.869Z,5.97
2018-08-30T10:09:54.904Z,7.63
2018-08-30T10:12:24.068Z,7.90
2018-08-30T10:14:53.125Z,6.70
2018-08-30T10:17:23.122Z,7.62
2018-08-30T10:19:54.218Z,7.40
2018-08-30T10:22:23.254Z,6.37
2018-08-30T10:24:52.340Z,8.23
2018-08-30T10:27:21.373Z,7.17
2018-08-30T10:29:52.422Z,7.80
2018-08-30T10:32:24.863Z,8.43
2018-08-30T10:34:53.904Z,7.87
2018-08-30T10:40:03.233Z,7.37
2018-08-30T10:42:32.450Z,6.93
2018-08-30T10:45:01.508Z,7.40
2018-08-30T10:47:31.558Z,7.63
2018-08-30T10:50:00.784Z,7.00
2018-08-30T10:52:29.798Z,7.40
2018-08-30T10:54:59.787Z,7.33
2018-08-30T10:57:28.853Z,7.07
2018-08-30T10:59:57.883Z,6.43
2018-08-30T11:02:26.937Z,8.18
2018-08-30T11:04:56.176Z,6.20
2018-08-30T11:07:25.220Z,6.40
2018-08-30T11:09:54.293Z,7.60
2018-08-30T11:12:23.445Z,7.23
2018-08-30T11:14:52.496Z,7.00
2018-08-30T11:17:21.555Z,8.15
2018-08-30T11:19:50.594Z,8.17
2018-08-30T11:30:06.958Z,7.28
2018-08-30T11:32:43.499Z,7.13
2018-08-30T11:35:17.204Z,7.23
2018-08-30T11:37:47.646Z,8.50
2018-08-30T11:40:17.541Z,7.90
2018-08-30T11:42:46.608Z,7.97
2018-08-30T11:45:15.666Z,7.83
2018-08-30T11:47:44.713Z,8.02
2018-08-30T11:50:13.757Z,7.73
2018-08-30T11:52:42.849Z,8.43
2018-08-30T11:55:11.853Z,7.23
2018-08-30T11:57:40.922Z,8.50
2018-08-30T12:00:09.988Z,8.10
2018-08-30T12:02:39.042Z,7.80
2018-08-30T12:05:08.105Z,8.37
2018-08-30T12:07:37.145Z,7.97
2018-08-30T12:10:08.198Z,7.50
2018-08-30T12:12:37.545Z,7.43
2018-08-30T12:15:06.589Z,7.33
2018-08-30T12:17:35.654Z,6.57
2018-08-30T12:20:05.397Z,6.23
2018-08-30T12:22:34.446Z,8.00
2018-08-30T12:25:03.488Z,8.13
2018-08-30T12:27:32.754Z,7.47
2018-08-30T12:30:01.841Z,7.13
2018-08-30T12:32:30.952Z,7.80
2018-08-30T12:35:00.952Z,7.30
2018-08-30T12:37:35.762Z,8.13
2018-08-30T12:40:04.910Z,8.10
2018-08-30T12:42:34.958Z,7.40
2018-08-30T12:45:03.990Z,7.30
2018-08-30T12:47:33.011Z,7.83
2018-08-30T12:50:02.070Z,10.23
2018-08-30T12:52:31.159Z,7.40
2018-08-30T12:55:00.201Z,8.02
2018-08-30T12:57:29.326Z,8.03
2018-08-30T13:02:35.060Z,7.78
2018-08-30T13:05:04.186Z,6.80
2018-08-30T13:07:33.245Z,7.43
2018-08-30T13:10:02.330Z,8.20
2018-08-30T13:12:32.104Z,9.97
2018-08-30T13:15:01.258Z,8.50
2018-08-30T13:17:30.914Z,7.53
2018-08-30T13:22:36.092Z,8.27
2018-08-30T13:25:04.935Z,8.23
2018-08-30T13:27:33.879Z,6.90
2018-08-30T13:30:03.309Z,7.30
2018-08-30T13:32:32.271Z,7.80
2018-08-30T13:35:01.523Z,8.48
2018-08-30T13:37:30.486Z,7.27
2018-08-30T13:39:59.410Z,9.88
2018-08-30T13:42:28.384Z,7.80
2018-08-30T13:44:57.572Z,8.77
2018-08-30T13:47:28.300Z,7.70
2018-08-30T13:49:57.560Z,7.47
2018-08-30T13:52:26.771Z,7.27
2018-08-30T13:54:59.088Z,7.30
2018-08-30T13:57:28.851Z,7.55
2018-08-30T13:59:57.968Z,8.33
2018-08-30T14:05:02.300Z,8.23
2018-08-30T14:07:34.721Z,7.17
2018-08-30T14:10:04.740Z,7.87
2018-08-30T14:12:33.991Z,8.97
2018-08-30T14:15:03.121Z,6.97
2018-08-30T14:20:08.559Z,7.12
2018-08-30T14:22:38.664Z,7.72
2018-08-30T14:25:08.585Z,7.00
2018-08-30T14:27:37.668Z,7.30
2018-08-30T14:30:07.752Z,7.03
2018-08-30T14:35:12.754Z,6.70
2018-08-30T14:40:18.079Z,7.60
2018-08-30T14:42:46.879Z,8.20
2018-08-30T14:45:17.045Z,8.38
2018-08-30T14:47:46.347Z,8.23
2018-08-30T14:52:51.081Z,7.95
2018-08-30T15:00:31.682Z,7.90
2018-08-30T15:03:00.721Z,8.05
2018-08-30T15:05:29.936Z,7.30
2018-08-30T15:07:58.812Z,9.53
2018-08-30T15:10:27.836Z,8.38
2018-08-30T15:12:56.891Z,10.93
2018-08-30T15:15:26.988Z,7.60
2018-08-30T15:17:55.977Z,7.13
2018-08-30T15:20:25.117Z,7.40
2018-08-30T15:22:54.081Z,7.63
2018-08-30T15:25:23.129Z,7.40
2018-08-30T15:27:54.094Z,8.60
2018-08-30T15:30:24.223Z,8.20
2018-08-30T15:32:55.725Z,7.60
2018-08-30T15:38:00.512Z,9.13
2018-08-30T15:40:30.494Z,8.20
2018-08-30T15:43:00.583Z,8.60
2018-08-30T15:45:29.628Z,9.17
2018-08-30T15:47:58.682Z,8.40
2018-08-30T15:50:27.746Z,9.00
2018-08-30T15:52:56.794Z,8.90
2018-08-30T15:58:01.694Z,7.70
2018-08-30T16:00:30.729Z,8.07
2018-08-30T16:03:00.790Z,8.83
2018-08-30T16:05:30.004Z,7.70
2018-08-30T16:07:59.090Z,6.63
2018-08-30T16:10:28.133Z,8.43
2018-08-30T16:12:57.322Z,8.47
2018-08-30T16:15:29.969Z,7.90
2018-08-30T16:18:02.680Z,9.23
2018-08-30T16:23:07.590Z,9.48
2018-08-30T16:25:40.698Z,8.13
2018-08-30T16:28:09.752Z,9.10
2018-08-30T16:30:39.057Z,7.73
2018-08-30T16:33:12.191Z,9.97
2018-08-30T16:35:42.434Z,9.17
2018-08-30T16:40:48.461Z,8.40
2018-08-30T16:43:17.510Z,9.80
2018-08-30T16:48:23.166Z,8.82
2018-08-30T16:50:52.229Z,6.80
2018-08-30T16:53:21.395Z,8.83
2018-08-30T16:55:50.326Z,8.55
2018-08-30T16:58:20.580Z,7.40
2018-08-30T17:00:49.618Z,7.50
2018-08-30T17:03:19.594Z,7.70
2018-08-30T17:05:48.725Z,7.70
2018-08-30T17:10:53.579Z,8.35
2018-08-30T17:13:22.625Z,8.70
2018-08-30T17:15:51.707Z,8.00
2018-08-30T17:20:56.584Z,8.90
2018-08-30T17:23:25.632Z,8.43
2018-08-30T17:25:54.816Z,10.23
2018-08-30T17:28:23.891Z,7.97
2018-08-30T17:33:29.481Z,11.02
2018-08-30T17:35:58.575Z,19.73
2018-08-30T17:38:27.709Z,8.03
2018-08-30T17:43:32.724Z,8.25
2018-08-30T17:46:01.775Z,10.57
2018-08-30T17:48:30.857Z,8.97
2018-08-30T17:50:59.947Z,10.30
2018-08-30T17:53:29.090Z,9.87
2018-08-30T17:55:58.088Z,11.90
2018-08-30T17:58:27.133Z,10.52
2018-08-30T18:00:57.204Z,11.00
2018-08-30T18:03:26.261Z,11.17
2018-08-30T18:05:55.341Z,11.27
2018-08-30T18:08:24.452Z,11.37
2018-08-30T18:10:53.514Z,10.10
2018-08-30T18:13:22.597Z,11.27
2018-08-30T18:15:51.666Z,11.00
2018-08-30T18:20:56.538Z,12.80
2018-08-30T18:23:25.604Z,13.30
2018-08-30T18:25:54.673Z,12.90
2018-08-30T18:28:23.922Z,11.67
2018-08-30T18:33:28.798Z,14.52
2018-08-30T18:35:57.854Z,16.27
2018-08-30T18:38:26.923Z,12.73
2018-08-30T18:40:55.989Z,12.20
2018-08-30T18:43:25.051Z,14.60
2018-08-30T18:45:54.109Z,12.83
2018-08-30T18:48:23.190Z,11.13
2018-08-30T18:50:52.255Z,13.40
2018-08-30T18:53:22.304Z,12.80
2018-08-30T18:55:51.378Z,11.90
2018-08-30T18:58:20.469Z,11.10
2018-08-30T19:00:49.482Z,10.53
2018-08-30T19:03:18.563Z,10.93
2018-08-30T19:05:48.602Z,11.27
2018-08-30T19:10:53.465Z,15.45
2018-08-30T19:13:22.605Z,14.02
2018-08-30T19:15:52.565Z,13.90
2018-08-30T19:23:55.104Z,14.70
2018-08-30T19:26:24.154Z,13.50
2018-08-30T19:28:53.240Z,13.23
2018-08-30T19:36:39.902Z,15.15
2018-08-30T19:39:08.945Z,14.43
2018-08-30T19:41:38.030Z,13.70
2018-08-30T19:44:08.036Z,13.77
2018-08-30T19:46:37.100Z,11.97
2018-08-30T19:49:06.226Z,12.10
2018-08-30T19:54:10.990Z,12.90
2018-08-30T19:56:41.003Z,13.52
2018-08-30T20:01:45.758Z,15.50
2018-08-30T20:04:14.838Z,13.95
2018-08-30T20:06:47.431Z,12.20
2018-08-30T20:09:17.462Z,14.37
2018-08-30T20:11:46.508Z,11.97
2018-08-30T20:14:15.553Z,14.13
2018-08-30T20:16:44.637Z,12.20
2018-08-30T20:19:14.658Z,13.70
2018-08-30T20:21:43.712Z,12.90
2018-08-30T20:24:12.830Z,11.63
2018-08-30T20:26:41.901Z,16.13
2018-08-30T20:29:10.962Z,12.10
2018-08-30T20:31:40.032Z,13.73
2018-08-30T20:36:44.832Z,14.10
2018-08-30T20:39:13.908Z,13.17
2018-08-30T20:41:44.105Z,12.20
2018-08-30T20:49:24.743Z,13.60
2018-08-30T20:51:53.798Z,13.00
2018-08-30T20:54:22.876Z,13.55
2018-08-30T20:56:51.929Z,11.67
2018-08-30T20:59:20.994Z,13.00
2018-08-30T21:01:51.067Z,14.00
2018-08-30T21:04:23.483Z,11.63
2018-08-30T21:12:04.247Z,13.68
2018-08-30T21:14:33.328Z,14.23
2018-08-30T21:17:02.384Z,12.80
2018-08-30T21:19:31.528Z,12.07
2018-08-30T21:22:01.482Z,14.40
2018-08-30T21:24:30.550Z,12.57
2018-08-30T21:26:59.620Z,12.30
2018-08-30T21:29:28.673Z,13.97
2018-08-30T21:31:57.825Z,12.60
2018-08-30T21:39:38.547Z,16.70
2018-08-30T21:42:07.606Z,14.00
2018-08-30T21:44:36.680Z,15.13
2018-08-30T21:47:06.436Z,14.32
2018-08-30T21:49:39.245Z,11.60
2018-08-30T21:52:08.344Z,12.03
2018-08-30T21:54:39.381Z,14.63
2018-08-30T21:57:08.453Z,14.77
2018-08-30T21:59:37.524Z,11.93
2018-08-30T22:02:06.626Z,13.47
2018-08-30T22:04:35.796Z,16.47
2018-08-30T22:07:04.914Z,10.83
2018-08-30T22:12:09.784Z,12.80
2018-08-30T22:14:38.856Z,11.60
2018-08-30T22:17:07.928Z,12.77
2018-08-30T22:22:13.901Z,13.13
2018-08-30T22:27:20.613Z,13.83
2018-08-30T22:29:49.722Z,12.83
2018-08-30T22:32:18.801Z,12.97
2018-08-30T22:37:23.589Z,15.33
2018-08-30T22:39:52.705Z,12.37
2018-08-30T22:42:23.703Z,14.00
2018-08-30T22:44:53.734Z,12.30
2018-08-30T22:47:22.833Z,13.50
2018-08-30T22:49:51.900Z,11.20
2018-08-30T22:52:20.964Z,11.20
2018-08-30T22:54:50.056Z,11.80
2018-08-30T22:57:19.122Z,14.33
2018-08-30T22:59:49.141Z,12.97
2018-08-30T23:02:18.210Z,19.43
2018-08-30T23:04:47.271Z,14.17
2018-08-30T23:09:52.105Z,17.10
2018-08-30T23:12:21.186Z,18.60
2018-08-30T23:14:50.439Z,14.90
2018-08-30T23:17:19.501Z,14.53
2018-08-30T23:22:24.363Z,16.00
2018-08-30T23:27:29.222Z,16.33
2018-08-30T23:29:58.426Z,15.57
2018-08-30T23:35:03.351Z,14.70
2018-08-30T23:37:32.465Z,13.30
2018-08-30T23:40:01.529Z,13.97
2018-08-30T23:42:30.597Z,14.57
2018-08-30T23:44:59.661Z,13.90
2018-08-30T23:47:28.726Z,14.63
2018-08-30T23:49:57.793Z,13.33
2018-08-30T23:52:26.856Z,13.40
2018-08-30T23:54:55.953Z,11.30
2018-08-30T23:57:25.030Z,13.50
